Time;durP1;ratioP1;P1;durP2;ratioP2;P2;SDS_P1;SDS_P2;PMS_P1;PMS_P2;Temp;Humidity;BMP_temperature;BMP_pressure;BME280_temperature;BME280_humidity;BME280_pressure;Samples;Min_cycle;Max_cycle;Signal;HPM_P1;HPM_P2
2023/07/14 00:02:10;;;;;;;;;;;14.50;99.90;;;;;;5056764;28;20422;-83
2023/07/14 00:04:36;;;;;;;;;;;14.50;99.90;;;;;;5074300;28;19912;-83
2023/07/14 00:07:03;;;;;;;;;;;14.50;99.90;;;;;;5070911;28;19940;-84
2023/07/14 00:09:30;;;;;;;;;;;14.50;99.90;;;;;;5074806;28;19909;-83
2023/07/14 00:11:56;;;;;;;;;;;14.60;99.90;;;;;;5074763;28;19936;-83
2023/07/14 00:14:21;;;;;;;;;;;14.60;99.90;;;;;;5069736;28;20281;-82
2023/07/14 00:16:47;;;;;;;;;;;14.60;99.90;;;;;;5038499;28;19913;-84
2023/07/14 00:19:14;;;;;;;;;;;14.60;99.90;;;;;;5059452;28;19912;-85
2023/07/14 00:21:40;;;;;;;;;;;14.60;99.90;;;;;;5046532;28;19909;-83
2023/07/14 00:24:16;;;;;;;;;;;14.60;99.90;;;;;;5058447;28;19919;-84
2023/07/14 00:26:43;;;;;;;;;;;14.60;99.90;;;;;;5057560;28;19917;-84
2023/07/14 00:29:28;;;;;;;;;;;14.50;99.90;;;;;;5040151;28;19983;-83
2023/07/14 00:31:55;;;;;;;;;;;14.60;99.90;;;;;;5068322;28;19909;-82
2023/07/14 00:34:21;;;;;;;;;;;14.50;99.90;;;;;;5051765;28;19920;-82
2023/07/14 00:36:47;;;;;;;;;;;14.50;99.90;;;;;;5054818;28;19909;-83
2023/07/14 00:39:12;;;;;;;;;;;14.50;99.90;;;;;;5058555;28;20277;-82
2023/07/14 00:41:38;;;;;;;;;;;14.50;99.90;;;;;;5057391;28;19909;-83
2023/07/14 00:44:04;;;;;;;;;;;14.50;99.90;;;;;;5057873;28;19913;-82
2023/07/14 00:46:30;;;;;;;;;;;14.50;99.90;;;;;;5052961;28;19975;-82
2023/07/14 00:48:59;;;;;;;;;;;14.50;99.90;;;;;;5049381;28;19912;-83
2023/07/14 00:51:29;;;;;;;;;;;14.40;99.90;;;;;;5060942;28;19909;-82
2023/07/14 00:53:56;;;;;;;;;;;14.40;99.90;;;;;;5065394;28;19916;-81
2023/07/14 00:56:31;;;;;;;;;;;14.40;99.90;;;;;;5056069;28;19909;-82
2023/07/14 00:58:57;;;;;;;;;;;14.40;99.90;;;;;;5038021;28;19916;-82
2023/07/14 01:01:22;;;;;;;;;;;14.40;99.90;;;;;;5040784;28;19913;-81
2023/07/14 01:03:51;;;;;;;;;;;14.40;99.90;;;;;;5045484;28;19960;-84
2023/07/14 01:06:18;;;;;;;;;;;14.40;99.90;;;;;;5068345;28;19944;-83
2023/07/14 01:08:51;;;;;;;;;;;14.50;99.90;;;;;;5050927;28;19909;-80
2023/07/14 01:11:17;;;;;;;;;;;14.50;99.90;;;;;;5057548;28;19908;-83
2023/07/14 01:13:43;;;;;;;;;;;14.50;99.90;;;;;;5056593;28;19913;-82
2023/07/14 01:16:09;;;;;;;;;;;14.50;99.90;;;;;;5055879;28;20302;-85
2023/07/14 01:18:36;;;;;;;;;;;14.50;99.90;;;;;;5039239;28;20006;-83
2023/07/14 01:21:02;;;;;;;;;;;14.50;99.90;;;;;;5056515;28;20282;-84
2023/07/14 01:23:37;;;;;;;;;;;14.60;99.90;;;;;;5062706;28;19909;-81
2023/07/14 01:26:12;;;;;;;;;;;14.60;99.90;;;;;;5059016;28;19913;-82
2023/07/14 01:28:37;;;;;;;;;;;14.60;99.90;;;;;;5038974;28;19915;-83
2023/07/14 01:31:03;;;;;;;;;;;14.60;99.90;;;;;;5056137;28;19913;-81
2023/07/14 01:33:29;;;;;;;;;;;14.70;99.90;;;;;;5038613;28;19909;-82
2023/07/14 01:35:58;;;;;;;;;;;14.70;99.90;;;;;;5047661;28;19910;-80
2023/07/14 01:38:24;;;;;;;;;;;14.70;99.90;;;;;;5057617;28;19986;-83
2023/07/14 01:40:50;;;;;;;;;;;14.70;99.90;;;;;;5056503;28;19948;-81
2023/07/14 01:43:17;;;;;;;;;;;14.70;99.90;;;;;;5052622;28;19912;-83
2023/07/14 01:45:45;;;;;;;;;;;14.70;99.90;;;;;;5069804;28;19909;-83
2023/07/14 01:48:12;;;;;;;;;;;14.70;99.90;;;;;;5057300;28;20358;-83
2023/07/14 01:50:44;;;;;;;;;;;14.70;99.90;;;;;;5066586;28;19923;-86
2023/07/14 01:53:12;;;;;;;;;;;14.70;99.90;;;;;;5055559;28;19909;-83
2023/07/14 01:55:40;;;;;;;;;;;14.70;99.90;;;;;;5058473;28;20302;-83
2023/07/14 01:58:08;;;;;;;;;;;14.70;99.90;;;;;;5056419;28;20023;-81
2023/07/14 02:00:35;;;;;;;;;;;14.70;99.90;;;;;;5066299;28;19913;-81
2023/07/14 02:03:03;;;;;;;;;;;14.70;99.90;;;;;;5055831;28;20019;-82
2023/07/14 02:05:31;;;;;;;;;;;14.70;99.90;;;;;;5055866;28;19972;-83
2023/07/14 02:07:59;;;;;;;;;;;14.70;99.90;;;;;;5055660;28;19943;-83
2023/07/14 02:10:25;;;;;;;;;;;14.70;99.90;;;;;;5040067;28;19951;-86
2023/07/14 02:12:52;;;;;;;;;;;14.60;99.90;;;;;;5049546;28;19966;-85
2023/07/14 02:15:23;;;;;;;;;;;14.60;99.90;;;;;;5055580;28;19999;-84
2023/07/14 02:17:50;;;;;;;;;;;14.50;99.90;;;;;;5057880;28;20374;-85
2023/07/14 02:20:26;;;;;;;;;;;14.40;99.90;;;;;;5060246;28;19931;-85
2023/07/14 02:22:53;;;;;;;;;;;14.40;99.90;;;;;;5062639;28;19930;-83
2023/07/14 02:25:20;;;;;;;;;;;14.40;99.90;;;;;;5070451;28;19920;-86
2023/07/14 02:27:46;;;;;;;;;;;14.30;99.90;;;;;;5041894;28;19912;-85
2023/07/14 02:30:13;;;;;;;;;;;14.40;99.90;;;;;;5039040;28;19909;-84
2023/07/14 02:32:44;;;;;;;;;;;14.30;99.90;;;;;;5047349;28;20275;-82
2023/07/14 02:35:33;;;;;;;;;;;14.30;99.90;;;;;;5048638;28;19954;-83
2023/07/14 02:38:03;;;;;;;;;;;14.30;99.90;;;;;;5039889;28;19932;-86
2023/07/14 02:40:36;;;;;;;;;;;14.30;99.90;;;;;;5052334;28;19967;-82
2023/07/14 02:43:10;;;;;;;;;;;14.20;99.90;;;;;;5035280;28;19909;-82
2023/07/14 02:45:38;;;;;;;;;;;14.20;99.90;;;;;;5054811;28;19917;-84
2023/07/14 02:48:06;;;;;;;;;;;14.20;99.90;;;;;;5051669;28;19928;-85
2023/07/14 02:50:31;;;;;;;;;;;14.20;99.90;;;;;;5040965;28;19963;-85
2023/07/14 02:52:57;;;;;;;;;;;14.20;99.90;;;;;;5055218;28;19909;-84
2023/07/14 02:55:23;;;;;;;;;;;14.10;99.90;;;;;;5044610;28;20270;-83
2023/07/14 02:57:49;;;;;;;;;;;14.10;99.90;;;;;;5055418;28;19988;-82
2023/07/14 03:00:15;;;;;;;;;;;14.10;99.90;;;;;;5068482;28;19915;-83
2023/07/14 03:02:41;;;;;;;;;;;14.10;99.90;;;;;;5062380;28;20395;-82
2023/07/14 03:05:11;;;;;;;;;;;14.10;99.90;;;;;;5045062;28;19987;-82
2023/07/14 03:07:37;;;;;;;;;;;14.00;99.90;;;;;;5050915;28;20366;-82
2023/07/14 03:10:03;;;;;;;;;;;14.00;99.90;;;;;;5055017;28;19967;-83
2023/07/14 03:12:30;;;;;;;;;;;14.00;99.90;;;;;;5032993;28;19913;-82
2023/07/14 03:14:56;;;;;;;;;;;14.00;99.90;;;;;;5037595;28;19959;-83
2023/07/14 03:17:22;;;;;;;;;;;14.10;99.90;;;;;;5043701;28;19952;-83
2023/07/14 03:19:47;;;;;;;;;;;14.10;99.90;;;;;;5045735;28;19941;-81
2023/07/14 03:22:13;;;;;;;;;;;14.10;99.90;;;;;;5057496;28;19909;-84
2023/07/14 03:24:39;;;;;;;;;;;14.20;99.90;;;;;;5054901;28;20381;-83
2023/07/14 03:27:04;;;;;;;;;;;14.20;99.90;;;;;;5044080;28;19908;-83
2023/07/14 03:29:30;;;;;;;;;;;14.20;99.90;;;;;;5054937;28;19909;-83
2023/07/14 03:31:56;;;;;;;;;;;14.20;99.90;;;;;;5043185;28;19932;-83
2023/07/14 03:34:22;;;;;;;;;;;14.20;99.90;;;;;;5066800;28;20003;-83
2023/07/14 03:36:48;;;;;;;;;;;14.30;99.90;;;;;;5051440;28;20016;-82
2023/07/14 03:39:23;;;;;;;;;;;14.30;99.90;;;;;;5034045;28;19913;-82
2023/07/14 03:41:49;;;;;;;;;;;14.30;99.90;;;;;;5060909;28;19904;-83
2023/07/14 03:44:15;;;;;;;;;;;14.40;99.90;;;;;;5059831;28;19908;-82
2023/07/14 03:46:41;;;;;;;;;;;14.40;99.90;;;;;;5045125;28;19991;-83
2023/07/14 03:49:06;;;;;;;;;;;14.50;99.90;;;;;;5072838;28;19928;-83
2023/07/14 03:51:32;;;;;;;;;;;14.50;99.90;;;;;;5049311;28;20366;-83
2023/07/14 03:53:59;;;;;;;;;;;14.50;99.90;;;;;;5040217;28;20298;-84
2023/07/14 03:56:25;;;;;;;;;;;14.50;99.90;;;;;;5055729;28;19915;-84
2023/07/14 03:58:52;;;;;;;;;;;14.50;99.90;;;;;;5059184;28;19924;-86
2023/07/14 04:01:18;;;;;;;;;;;14.50;99.90;;;;;;5074833;28;19954;-82
2023/07/14 04:03:45;;;;;;;;;;;14.50;99.90;;;;;;5064503;28;20385;-82
2023/07/14 04:06:11;;;;;;;;;;;14.50;99.90;;;;;;5048406;28;20004;-81
2023/07/14 04:08:37;;;;;;;;;;;14.40;99.90;;;;;;5050887;28;20180;-83
2023/07/14 04:11:03;;;;;;;;;;;14.30;99.90;;;;;;5065100;28;19913;-82
2023/07/14 04:13:30;;;;;;;;;;;14.40;99.90;;;;;;5053899;28;19940;-84
2023/07/14 04:15:56;;;;;;;;;;;14.40;99.90;;;;;;5044473;28;19929;-83
2023/07/14 04:18:22;;;;;;;;;;;14.30;99.90;;;;;;5049423;28;19956;-85
2023/07/14 04:20:49;;;;;;;;;;;14.40;99.90;;;;;;5057269;28;19908;-83
2023/07/14 04:23:15;;;;;;;;;;;14.30;99.90;;;;;;5039045;28;19909;-84
2023/07/14 04:25:41;;;;;;;;;;;14.20;99.90;;;;;;5061426;28;19936;-84
2023/07/14 04:28:06;;;;;;;;;;;14.30;99.90;;;;;;5024321;28;19913;-83
2023/07/14 04:30:32;;;;;;;;;;;14.20;99.90;;;;;;5051512;28;19913;-85
2023/07/14 04:32:58;;;;;;;;;;;14.20;99.90;;;;;;5057639;28;19952;-84
2023/07/14 04:35:24;;;;;;;;;;;14.20;99.90;;;;;;5059170;28;19916;-83
2023/07/14 04:37:49;;;;;;;;;;;14.20;99.90;;;;;;5062246;28;19917;-83
2023/07/14 04:40:17;;;;;;;;;;;14.20;99.90;;;;;;5074005;28;19909;-83
2023/07/14 04:42:42;;;;;;;;;;;14.20;99.90;;;;;;5051489;28;20429;-84
2023/07/14 04:45:08;;;;;;;;;;;14.10;99.90;;;;;;5071090;28;19913;-84
2023/07/14 04:47:34;;;;;;;;;;;14.30;99.90;;;;;;5055369;28;19920;-84
2023/07/14 04:50:00;;;;;;;;;;;14.20;99.90;;;;;;5072006;28;19909;-83
2023/07/14 04:52:25;;;;;;;;;;;14.30;99.90;;;;;;5062791;28;19935;-84
2023/07/14 04:54:51;;;;;;;;;;;14.30;99.90;;;;;;5041893;28;20009;-83
2023/07/14 04:57:17;;;;;;;;;;;14.30;99.90;;;;;;5059944;28;19916;-82
2023/07/14 04:59:43;;;;;;;;;;;14.30;99.90;;;;;;5042840;28;20404;-83
2023/07/14 05:02:09;;;;;;;;;;;14.20;99.90;;;;;;5061010;28;19913;-85
2023/07/14 05:04:39;;;;;;;;;;;14.30;99.90;;;;;;5071943;28;19976;-82
2023/07/14 05:07:07;;;;;;;;;;;14.40;99.90;;;;;;5068169;28;20289;-82
2023/07/14 05:09:34;;;;;;;;;;;14.40;99.90;;;;;;5069206;28;19916;-84
2023/07/14 05:12:00;;;;;;;;;;;14.40;99.90;;;;;;5039504;28;19963;-82
2023/07/14 05:14:26;;;;;;;;;;;14.30;99.90;;;;;;5066204;28;19913;-83
2023/07/14 05:16:52;;;;;;;;;;;14.40;99.90;;;;;;5069913;28;19935;-83
2023/07/14 05:19:18;;;;;;;;;;;14.40;99.90;;;;;;5061771;28;19917;-84
2023/07/14 05:21:45;;;;;;;;;;;14.40;99.90;;;;;;5058861;28;20310;-84
2023/07/14 05:24:11;;;;;;;;;;;14.40;99.90;;;;;;5058760;28;19913;-82
2023/07/14 05:26:37;;;;;;;;;;;14.30;99.90;;;;;;5052053;28;19909;-84
2023/07/14 05:29:05;;;;;;;;;;;14.40;99.90;;;;;;5040794;28;19974;-84
2023/07/14 05:31:32;;;;;;;;;;;14.40;99.90;;;;;;5059494;28;19908;-83
2023/07/14 05:33:58;;;;;;;;;;;14.40;99.90;;;;;;5067083;28;19975;-81
2023/07/14 05:36:25;;;;;;;;;;;14.30;99.90;;;;;;5074777;28;19913;-83
2023/07/14 05:38:50;;;;;;;;;;;14.30;99.90;;;;;;5061098;28;19988;-84
2023/07/14 05:41:16;;;;;;;;;;;14.40;99.90;;;;;;5063072;28;19912;-83
2023/07/14 05:43:43;;;;;;;;;;;14.40;99.90;;;;;;5065044;28;20409;-85
2023/07/14 05:46:09;;;;;;;;;;;14.50;99.90;;;;;;5065105;28;19913;-85
2023/07/14 05:48:36;;;;;;;;;;;14.50;99.90;;;;;;5064030;28;19956;-84
2023/07/14 05:51:02;;;;;;;;;;;14.60;99.90;;;;;;5042594;28;20370;-83
2023/07/14 05:53:29;;;;;;;;;;;14.60;99.90;;;;;;5059144;28;19930;-85
2023/07/14 05:55:56;;;;;;;;;;;14.60;99.90;;;;;;5071903;28;19909;-85
2023/07/14 05:58:22;;;;;;;;;;;14.80;99.90;;;;;;5051988;28;20012;-82
2023/07/14 06:00:48;;;;;;;;;;;15.10;99.90;;;;;;5054039;28;20366;-80
2023/07/14 06:03:17;;;;;;;;;;;15.20;99.90;;;;;;5055956;28;19948;-80
2023/07/14 06:05:43;;;;;;;;;;;15.60;99.90;;;;;;5055868;28;19935;-82
2023/07/14 06:08:09;;;;;;;;;;;15.90;99.90;;;;;;5055181;28;19908;-81
2023/07/14 06:10:34;;;;;;;;;;;16.30;99.90;;;;;;5056384;28;19928;-82
2023/07/14 06:13:04;;;;;;;;;;;16.60;99.90;;;;;;5054474;28;19913;-84
2023/07/14 06:15:30;;;;;;;;;;;16.70;99.90;;;;;;5051540;28;20031;-84
2023/07/14 06:17:55;;;;;;;;;;;16.70;99.90;;;;;;5057567;28;20015;-84
2023/07/14 06:20:21;;;;;;;;;;;16.60;99.90;;;;;;5048741;28;19913;-83
2023/07/14 06:22:48;;;;;;;;;;;16.40;99.90;;;;;;5060368;28;19909;-83
2023/07/14 06:25:14;;;;;;;;;;;16.40;99.90;;;;;;5070866;28;19893;-84
2023/07/14 06:27:40;;;;;;;;;;;16.40;99.90;;;;;;5049936;28;19931;-84
2023/07/14 06:30:06;;;;;;;;;;;16.40;99.90;;;;;;5063286;28;19913;-84
2023/07/14 06:32:31;;;;;;;;;;;16.50;99.90;;;;;;5049010;28;20382;-83
2023/07/14 06:34:57;;;;;;;;;;;16.70;99.90;;;;;;5050921;28;19909;-85
2023/07/14 06:37:24;;;;;;;;;;;16.90;99.90;;;;;;5024982;28;19913;-83
2023/07/14 06:39:50;;;;;;;;;;;17.20;99.90;;;;;;5053565;28;20006;-85
2023/07/14 06:42:16;;;;;;;;;;;17.10;99.90;;;;;;5046673;28;20515;-85
2023/07/14 06:44:42;;;;;;;;;;;17.20;99.90;;;;;;5039890;28;19928;-84
2023/07/14 06:47:08;;;;;;;;;;;17.30;99.90;;;;;;5056698;28;19921;-85
2023/07/14 06:49:34;;;;;;;;;;;17.40;99.90;;;;;;5048549;28;19980;-86
2023/07/14 06:52:00;;;;;;;;;;;17.50;99.90;;;;;;5044204;28;19988;-85
2023/07/14 06:54:26;;;;;;;;;;;17.50;99.90;;;;;;5056193;28;19916;-83
2023/07/14 06:56:54;;;;;;;;;;;17.60;99.90;;;;;;5053204;28;20019;-86
2023/07/14 06:59:20;;;;;;;;;;;17.50;99.90;;;;;;5055910;28;19936;-83
2023/07/14 07:01:45;;;;;;;;;;;17.30;99.90;;;;;;5059942;28;19913;-84
2023/07/14 07:04:11;;;;;;;;;;;17.10;99.90;;;;;;5048281;28;19909;-85
2023/07/14 07:06:37;;;;;;;;;;;17.00;99.90;;;;;;5059193;28;20362;-85
2023/07/14 07:09:04;;;;;;;;;;;17.00;99.90;;;;;;5045041;28;19940;-84
2023/07/14 07:11:30;;;;;;;;;;;17.00;99.90;;;;;;5051341;28;20004;-85
2023/07/14 07:13:56;;;;;;;;;;;17.10;99.90;;;;;;5058418;28;19961;-84
2023/07/14 07:16:21;;;;;;;;;;;17.20;99.90;;;;;;5056211;28;20046;-84
2023/07/14 07:18:47;;;;;;;;;;;17.30;99.90;;;;;;5037370;28;19917;-84
2023/07/14 07:21:13;;;;;;;;;;;17.20;99.90;;;;;;5054673;28;19948;-84
2023/07/14 07:23:39;;;;;;;;;;;17.20;99.90;;;;;;5055324;28;19909;-84
2023/07/14 07:26:06;;;;;;;;;;;17.30;99.90;;;;;;5057714;28;19998;-84
2023/07/14 07:28:32;;;;;;;;;;;17.40;99.90;;;;;;5065523;28;19915;-85
2023/07/14 07:30:57;;;;;;;;;;;17.50;99.90;;;;;;5051844;28;19952;-84
2023/07/14 07:33:23;;;;;;;;;;;17.70;99.90;;;;;;5043829;28;20440;-86
2023/07/14 07:35:49;;;;;;;;;;;17.80;99.90;;;;;;5057342;28;19913;-84
2023/07/14 07:38:15;;;;;;;;;;;17.90;99.70;;;;;;5038086;28;20012;-84
2023/07/14 07:40:44;;;;;;;;;;;17.80;99.40;;;;;;5058104;28;19920;-85
2023/07/14 07:43:09;;;;;;;;;;;17.50;99.10;;;;;;5049344;28;19916;-83
2023/07/14 07:45:35;;;;;;;;;;;17.30;98.90;;;;;;5055884;28;19913;-84
2023/07/14 07:48:01;;;;;;;;;;;17.10;99.10;;;;;;5056134;28;19921;-85
2023/07/14 07:50:28;;;;;;;;;;;16.90;99.40;;;;;;5052682;28;19913;-84
2023/07/14 07:52:54;;;;;;;;;;;16.80;99.60;;;;;;5044479;28;19938;-86
2023/07/14 07:55:19;;;;;;;;;;;16.70;99.80;;;;;;5054496;28;19974;-84
2023/07/14 07:57:47;;;;;;;;;;;16.70;99.90;;;;;;5054034;28;19916;-86
2023/07/14 08:00:13;;;;;;;;;;;16.80;99.90;;;;;;5057905;28;19912;-84
2023/07/14 08:02:41;;;;;;;;;;;16.90;99.90;;;;;;5041451;28;19956;-84
2023/07/14 08:05:07;;;;;;;;;;;17.10;99.90;;;;;;5057174;28;19959;-84
2023/07/14 08:07:32;;;;;;;;;;;17.10;99.50;;;;;;5040909;28;19916;-87
2023/07/14 08:09:58;;;;;;;;;;;17.20;99.20;;;;;;5062256;28;19909;-84
2023/07/14 08:12:25;;;;;;;;;;;17.10;99.10;;;;;;5063651;28;19913;-85
2023/07/14 08:14:50;;;;;;;;;;;17.10;99.00;;;;;;5045138;28;19909;-85
2023/07/14 08:17:16;;;;;;;;;;;17.00;99.10;;;;;;5066921;28;19939;-85
2023/07/14 08:19:42;;;;;;;;;;;16.90;99.10;;;;;;5046958;28;19917;-86
2023/07/14 08:22:08;;;;;;;;;;;16.90;99.30;;;;;;5061021;28;19916;-84
2023/07/14 08:24:33;;;;;;;;;;;16.80;99.40;;;;;;5062700;28;20382;-85
2023/07/14 08:26:59;;;;;;;;;;;16.80;99.40;;;;;;5063060;28;19909;-84
2023/07/14 08:29:25;;;;;;;;;;;16.80;99.30;;;;;;5057782;28;19913;-85
2023/07/14 08:31:50;;;;;;;;;;;16.80;99.30;;;;;;5060497;28;19944;-85
2023/07/14 08:34:16;;;;;;;;;;;16.70;99.20;;;;;;5041325;28;19913;-84
2023/07/14 08:36:42;;;;;;;;;;;16.60;99.20;;;;;;5060188;28;19919;-84
2023/07/14 08:39:08;;;;;;;;;;;16.60;99.30;;;;;;5032696;28;19917;-85
2023/07/14 08:41:40;;;;;;;;;;;16.60;99.40;;;;;;5054652;28;19908;-85
2023/07/14 08:44:23;;;;;;;;;;;16.60;99.40;;;;;;5040807;28;19982;-86
2023/07/14 08:46:49;;;;;;;;;;;16.50;99.30;;;;;;5059112;28;19943;-85
2023/07/14 08:49:23;;;;;;;;;;;16.60;99.40;;;;;;5044672;28;19908;-85
2023/07/14 08:51:51;;;;;;;;;;;16.60;99.40;;;;;;5065867;28;19908;-83
2023/07/14 08:54:19;;;;;;;;;;;16.60;99.60;;;;;;5065599;28;20014;-85
2023/07/14 08:56:45;;;;;;;;;;;16.70;99.70;;;;;;5057208;28;20218;-86
2023/07/14 08:59:18;;;;;;;;;;;16.80;99.70;;;;;;5060430;28;19925;-83
2023/07/14 09:01:52;;;;;;;;;;;17.00;99.60;;;;;;5046022;28;19909;-85
2023/07/14 09:04:20;;;;;;;;;;;17.10;99.50;;;;;;5058340;28;19909;-85
2023/07/14 09:06:47;;;;;;;;;;;17.20;99.30;;;;;;5070133;28;20008;-84
2023/07/14 09:09:27;;;;;;;;;;;17.30;99.00;;;;;;5071241;28;19913;-84
2023/07/14 09:12:05;;;;;;;;;;;17.20;98.90;;;;;;5053934;28;19936;-85
2023/07/14 09:14:34;;;;;;;;;;;17.10;98.60;;;;;;5072123;28;19912;-85
2023/07/14 09:17:18;;;;;;;;;;;16.90;98.60;;;;;;5069979;28;19916;-84
2023/07/14 09:20:03;;;;;;;;;;;16.80;98.60;;;;;;5070444;28;19913;-83
2023/07/14 09:22:46;;;;;;;;;;;16.80;98.90;;;;;;5046231;28;19909;-84
2023/07/14 09:25:18;;;;;;;;;;;16.80;99.00;;;;;;5053912;28;20125;-84
2023/07/14 09:27:44;;;;;;;;;;;16.80;99.10;;;;;;5040378;28;19916;-86
2023/07/14 09:30:15;;;;;;;;;;;16.70;99.10;;;;;;5045573;28;20297;-84
2023/07/14 09:32:42;;;;;;;;;;;16.80;99.60;;;;;;5063943;28;19909;-84
2023/07/14 09:35:14;;;;;;;;;;;16.90;99.50;;;;;;5064117;28;20003;-84
2023/07/14 09:37:40;;;;;;;;;;;17.10;99.50;;;;;;5066731;28;20019;-84
2023/07/14 09:40:20;;;;;;;;;;;17.30;99.20;;;;;;5064335;28;20445;-84
2023/07/14 09:42:50;;;;;;;;;;;17.40;98.50;;;;;;5061352;28;19913;-86
2023/07/14 09:45:18;;;;;;;;;;;17.30;98.30;;;;;;5061079;28;19916;-85
2023/07/14 09:47:44;;;;;;;;;;;17.30;98.40;;;;;;5060954;28;19920;-85
2023/07/14 09:50:21;;;;;;;;;;;17.40;98.50;;;;;;5046252;28;19909;-85
2023/07/14 09:52:51;;;;;;;;;;;17.50;98.40;;;;;;5060708;28;20258;-84
2023/07/14 09:55:19;;;;;;;;;;;17.70;98.30;;;;;;5068059;28;19920;-85
2023/07/14 09:57:46;;;;;;;;;;;17.80;98.20;;;;;;5072654;28;19917;-85
2023/07/14 10:00:19;;;;;;;;;;;18.00;98.00;;;;;;5051309;28;20342;-84
2023/07/14 10:02:58;;;;;;;;;;;18.20;97.60;;;;;;5059754;28;19974;-83
2023/07/14 10:05:45;;;;;;;;;;;18.40;97.30;;;;;;5041431;28;19913;-84
2023/07/14 10:08:25;;;;;;;;;;;18.50;96.60;;;;;;5058007;28;19924;-84
2023/07/14 10:10:52;;;;;;;;;;;18.40;95.90;;;;;;5057936;28;19917;-85
2023/07/14 10:13:21;;;;;;;;;;;18.30;95.90;;;;;;5061232;28;19976;-84
2023/07/14 10:15:53;;;;;;;;;;;18.20;96.20;;;;;;5061675;28;19909;-85
2023/07/14 10:18:22;;;;;;;;;;;18.10;96.20;;;;;;5040852;28;20003;-84
2023/07/14 10:21:14;;;;;;;;;;;18.00;96.40;;;;;;5063445;28;19909;-84
2023/07/14 10:23:40;;;;;;;;;;;17.90;96.50;;;;;;5045951;28;19913;-83
2023/07/14 10:26:07;;;;;;;;;;;17.90;96.50;;;;;;5062504;28;19908;-84
2023/07/14 10:28:35;;;;;;;;;;;17.80;96.70;;;;;;5065137;28;19917;-84
2023/07/14 10:31:04;;;;;;;;;;;17.90;96.80;;;;;;5064711;28;19909;-85
2023/07/14 10:33:56;;;;;;;;;;;17.90;96.80;;;;;;5043727;28;19924;-84
2023/07/14 10:36:30;;;;;;;;;;;17.90;96.90;;;;;;5039212;28;19919;-84
2023/07/14 10:39:02;;;;;;;;;;;18.00;96.80;;;;;;5063533;28;19921;-83
2023/07/14 10:41:28;;;;;;;;;;;18.00;96.80;;;;;;5045680;28;19909;-84
2023/07/14 10:44:20;;;;;;;;;;;18.00;96.70;;;;;;5039082;28;19954;-85
2023/07/14 10:46:48;;;;;;;;;;;17.90;96.40;;;;;;5038949;28;19960;-84
2023/07/14 10:49:22;;;;;;;;;;;17.60;96.50;;;;;;5026551;28;19909;-83
2023/07/14 10:51:57;;;;;;;;;;;17.50;96.60;;;;;;5050592;28;20346;-83
2023/07/14 10:54:36;;;;;;;;;;;17.50;96.80;;;;;;5055081;28;19909;-84
2023/07/14 10:57:13;;;;;;;;;;;17.50;97.00;;;;;;5058282;28;19917;-84
2023/07/14 10:59:52;;;;;;;;;;;17.50;97.00;;;;;;5055599;28;19917;-83
2023/07/14 11:02:28;;;;;;;;;;;17.70;97.10;;;;;;5054098;28;19959;-84
2023/07/14 11:04:59;;;;;;;;;;;17.80;97.10;;;;;;5059558;28;19980;-85
2023/07/14 11:07:29;;;;;;;;;;;17.80;96.60;;;;;;5036251;28;19988;-84
2023/07/14 11:09:56;;;;;;;;;;;17.70;96.50;;;;;;5048279;28;19978;-82
2023/07/14 11:12:30;;;;;;;;;;;17.70;96.70;;;;;;5047580;28;20398;-83
2023/07/14 11:15:16;;;;;;;;;;;17.70;96.80;;;;;;5040342;28;19925;-84
2023/07/14 11:17:42;;;;;;;;;;;17.60;96.80;;;;;;5021138;28;19917;-84
2023/07/14 11:20:12;;;;;;;;;;;17.60;96.70;;;;;;5037272;28;19920;-84
2023/07/14 11:22:44;;;;;;;;;;;17.60;96.70;;;;;;5059905;28;19959;-83
2023/07/14 11:25:17;;;;;;;;;;;17.60;96.70;;;;;;5047714;28;19909;-84
2023/07/14 11:28:02;;;;;;;;;;;17.60;96.80;;;;;;5047914;28;19908;-83
2023/07/14 11:30:39;;;;;;;;;;;17.60;96.70;;;;;;5045972;28;19920;-84
2023/07/14 11:33:10;;;;;;;;;;;17.60;97.00;;;;;;5037109;28;20004;-81
2023/07/14 11:35:39;;;;;;;;;;;17.70;96.80;;;;;;5059065;28;19909;-83
2023/07/14 11:38:13;;;;;;;;;;;17.80;96.80;;;;;;5046808;28;19917;-83
2023/07/14 11:40:40;;;;;;;;;;;18.00;96.70;;;;;;5044642;28;19971;-84
2023/07/14 11:43:09;;;;;;;;;;;18.10;96.50;;;;;;5044653;28;19909;-85
2023/07/14 11:45:34;;;;;;;;;;;18.30;96.40;;;;;;5057295;28;19909;-82
2023/07/14 11:48:00;;;;;;;;;;;18.40;95.90;;;;;;5063783;28;19927;-83
2023/07/14 11:50:30;;;;;;;;;;;18.40;95.50;;;;;;5040326;28;19941;-84
2023/07/14 11:53:01;;;;;;;;;;;18.40;95.50;;;;;;5048313;28;19952;-83
2023/07/14 11:55:28;;;;;;;;;;;18.50;95.20;;;;;;5058210;28;20294;-84
2023/07/14 11:58:04;;;;;;;;;;;18.50;95.30;;;;;;5037759;28;19943;-82
2023/07/14 12:00:37;;;;;;;;;;;18.60;94.90;;;;;;5059778;28;19955;-83
2023/07/14 12:03:03;;;;;;;;;;;18.80;94.70;;;;;;5061697;28;19973;-84
2023/07/14 12:05:34;;;;;;;;;;;19.00;94.40;;;;;;5061182;28;20362;-84
2023/07/14 12:08:10;;;;;;;;;;;19.30;94.20;;;;;;5044490;28;20445;-82
2023/07/14 12:10:40;;;;;;;;;;;19.50;93.60;;;;;;5059985;28;20484;-85
2023/07/14 12:13:18;;;;;;;;;;;19.80;93.60;;;;;;5062284;28;20445;-83
2023/07/14 12:15:56;;;;;;;;;;;20.10;93.20;;;;;;5069000;28;19916;-83
2023/07/14 12:18:24;;;;;;;;;;;20.20;92.50;;;;;;5075804;28;19921;-84
2023/07/14 12:20:50;;;;;;;;;;;20.00;91.60;;;;;;5064026;28;20007;-83
2023/07/14 12:23:24;;;;;;;;;;;20.00;91.80;;;;;;5060467;28;19908;-84
2023/07/14 12:25:52;;;;;;;;;;;19.90;91.80;;;;;;5049028;28;20337;-83
2023/07/14 12:28:25;;;;;;;;;;;20.00;92.00;;;;;;5038144;28;19959;-83
2023/07/14 12:30:53;;;;;;;;;;;19.90;91.90;;;;;;5061224;28;19951;-84
2023/07/14 12:33:21;;;;;;;;;;;19.90;92.10;;;;;;5053832;28;19972;-84
2023/07/14 12:35:48;;;;;;;;;;;19.90;92.20;;;;;;5059871;28;20023;-83
2023/07/14 12:38:21;;;;;;;;;;;19.90;91.80;;;;;;5059039;28;19916;-83
2023/07/14 12:40:48;;;;;;;;;;;19.90;91.90;;;;;;5062217;28;19955;-84
2023/07/14 12:43:33;;;;;;;;;;;19.90;91.50;;;;;;5059104;28;19908;-85
2023/07/14 12:46:00;;;;;;;;;;;19.80;91.30;;;;;;5047719;28;19920;-83
2023/07/14 12:48:27;;;;;;;;;;;19.80;91.20;;;;;;5061425;28;19970;-84
2023/07/14 12:50:54;;;;;;;;;;;19.80;91.30;;;;;;5061278;28;20005;-82
2023/07/14 12:53:19;;;;;;;;;;;19.70;91.20;;;;;;5039364;28;19909;-83
2023/07/14 12:55:45;;;;;;;;;;;19.70;91.30;;;;;;5063243;28;20319;-84
2023/07/14 12:58:20;;;;;;;;;;;19.60;91.10;;;;;;5041956;28;19979;-82
2023/07/14 13:00:46;;;;;;;;;;;19.50;91.30;;;;;;5060268;28;19966;-85
2023/07/14 13:03:13;;;;;;;;;;;19.50;91.50;;;;;;5057839;28;20333;-83
2023/07/14 13:05:41;;;;;;;;;;;19.40;91.30;;;;;;5061255;28;19996;-83
2023/07/14 13:08:10;;;;;;;;;;;19.30;91.40;;;;;;5045531;28;19920;-83
2023/07/14 13:10:40;;;;;;;;;;;19.20;91.70;;;;;;5058547;28;19936;-83
2023/07/14 13:13:11;;;;;;;;;;;19.20;91.80;;;;;;5066264;28;19983;-82
2023/07/14 13:15:37;;;;;;;;;;;19.10;91.90;;;;;;5045270;28;20329;-84
2023/07/14 13:18:09;;;;;;;;;;;19.20;91.90;;;;;;5057351;28;19917;-82
2023/07/14 13:20:36;;;;;;;;;;;19.10;91.90;;;;;;5044436;28;19913;-83
2023/07/14 13:23:15;;;;;;;;;;;19.00;91.90;;;;;;5062265;28;19916;-84
2023/07/14 13:25:49;;;;;;;;;;;19.00;91.90;;;;;;5063476;28;19920;-83
2023/07/14 13:28:33;;;;;;;;;;;18.90;92.00;;;;;;5056728;28;19909;-83
2023/07/14 13:31:03;;;;;;;;;;;18.90;92.10;;;;;;5057911;28;19963;-83
2023/07/14 13:33:29;;;;;;;;;;;18.90;92.20;;;;;;5039872;28;20359;-84
2023/07/14 13:35:57;;;;;;;;;;;18.90;92.20;;;;;;5040737;28;19916;-82
2023/07/14 13:38:25;;;;;;;;;;;18.90;92.20;;;;;;5058527;28;19925;-81
2023/07/14 13:40:52;;;;;;;;;;;18.90;92.30;;;;;;5057355;28;19913;-82
2023/07/14 13:43:20;;;;;;;;;;;18.80;92.20;;;;;;5039065;28;19912;-85
2023/07/14 13:45:56;;;;;;;;;;;18.80;92.40;;;;;;5057094;28;19920;-86
2023/07/14 13:48:33;;;;;;;;;;;18.70;92.40;;;;;;5056813;28;20023;-84
2023/07/14 13:50:59;;;;;;;;;;;18.60;92.40;;;;;;5059685;28;19988;-83
2023/07/14 13:53:25;;;;;;;;;;;18.70;92.50;;;;;;5048004;28;19941;-83
2023/07/14 13:55:51;;;;;;;;;;;18.60;92.90;;;;;;5045024;28;19952;-83
2023/07/14 13:58:17;;;;;;;;;;;18.60;92.70;;;;;;5067832;28;19924;-84
2023/07/14 14:00:44;;;;;;;;;;;18.60;92.70;;;;;;5053130;28;19909;-84
2023/07/14 14:03:10;;;;;;;;;;;18.60;93.10;;;;;;5035554;28;19919;-82
2023/07/14 14:05:37;;;;;;;;;;;18.60;92.90;;;;;;5066132;28;20314;-83
2023/07/14 14:08:09;;;;;;;;;;;18.60;92.90;;;;;;5057858;28;19936;-84
2023/07/14 14:10:35;;;;;;;;;;;18.60;93.00;;;;;;5040342;28;19962;-83
2023/07/14 14:13:01;;;;;;;;;;;18.50;93.30;;;;;;5040852;28;19908;-85
2023/07/14 14:15:28;;;;;;;;;;;18.60;93.10;;;;;;5057344;28;19909;-84
2023/07/14 14:17:58;;;;;;;;;;;18.50;93.20;;;;;;5058082;28;20246;-83
2023/07/14 14:20:26;;;;;;;;;;;18.60;93.30;;;;;;5068151;28;19908;-84
2023/07/14 14:22:52;;;;;;;;;;;18.60;93.20;;;;;;5062373;28;19917;-83
2023/07/14 14:25:19;;;;;;;;;;;18.60;93.30;;;;;;5039811;28;19924;-84